Time;durP1;ratioP1;P1;durP2;ratioP2;P2;SDS_P1;SDS_P2;PMS_P1;PMS_P2;Temp;Humidity;BMP_temperature;BMP_pressure;BME280_temperature;BME280_humidity;BME280_pressure;Samples;Min_cycle;Max_cycle;Signal;HPM_P1;HPM_P2
2021/07/27 00:00:57;;;;;;;5.90;5.40;;;21.50;82.30;;;;;;5073226;28;20814;-73
2021/07/27 00:03:25;;;;;;;5.73;5.23;;;21.50;82.90;;;;;;5073376;28;20475;-73
2021/07/27 00:05:53;;;;;;;7.27;6.57;;;21.40;83.20;;;;;;5073192;28;20491;-73
2021/07/27 00:08:19;;;;;;;6.53;5.83;;;21.40;83.60;;;;;;5073084;28;20445;-73
2021/07/27 00:10:46;;;;;;;6.70;5.87;;;21.30;83.70;;;;;;5073113;28;20448;-73
2021/07/27 00:13:13;;;;;;;10.00;6.43;;;21.30;83.90;;;;;;5074947;28;20468;-73
2021/07/27 00:15:42;;;;;;;6.53;5.93;;;21.20;84.20;;;;;;5076546;28;20484;-73
2021/07/27 00:18:09;;;;;;;6.60;6.00;;;21.20;84.50;;;;;;5076868;28;20817;-73
2021/07/27 00:20:36;;;;;;;6.10;5.60;;;21.10;84.60;;;;;;5077062;28;20451;-73
2021/07/27 00:23:03;;;;;;;7.23;6.53;;;21.10;84.60;;;;;;5076369;28;20480;-73
2021/07/27 00:25:30;;;;;;;8.70;6.73;;;21.20;85.00;;;;;;5076707;28;20448;-73
2021/07/27 00:27:57;;;;;;;8.80;6.90;;;21.20;84.90;;;;;;5076680;28;20444;-73
2021/07/27 00:30:24;;;;;;;10.27;7.67;;;21.10;84.70;;;;;;5076314;28;20818;-73
2021/07/27 00:32:52;;;;;;;7.73;6.83;;;21.10;85.20;;;;;;5076745;28;20461;-73
2021/07/27 00:35:19;;;;;;;9.07;7.80;;;21.00;85.20;;;;;;5076458;28;20483;-73
2021/07/27 00:37:48;;;;;;;8.30;7.40;;;21.00;85.50;;;;;;5076163;28;20954;-73
2021/07/27 00:40:15;;;;;;;9.20;8.30;;;20.90;85.60;;;;;;5076101;28;20451;-73
2021/07/27 00:42:44;;;;;;;11.70;8.30;;;20.90;85.90;;;;;;5076376;28;20465;-73
2021/07/27 00:45:11;;;;;;;10.57;8.37;;;20.70;86.70;;;;;;5076060;28;20471;-73
2021/07/27 00:47:38;;;;;;;9.63;8.57;;;20.70;87.20;;;;;;5076300;28;20450;-73
2021/07/27 00:50:08;;;;;;;10.27;8.60;;;20.60;87.50;;;;;;5075964;28;20934;-73
2021/07/27 00:52:35;;;;;;;15.53;9.70;;;20.60;87.70;;;;;;5076468;28;20514;-73
2021/07/27 00:55:03;;;;;;;15.47;8.77;;;20.50;88.00;;;;;;5075786;28;21020;-73
2021/07/27 00:57:31;;;;;;;11.40;10.00;;;20.50;88.40;;;;;;5076136;28;20448;-73
2021/07/27 00:59:59;;;;;;;13.67;11.07;;;20.50;88.60;;;;;;5076105;28;20448;-73
2021/07/27 01:02:25;;;;;;;14.30;8.70;;;20.50;88.60;;;;;;5075651;28;20982;-73
2021/07/27 01:04:52;;;;;;;15.70;9.30;;;20.50;88.80;;;;;;5076008;28;20448;-73
2021/07/27 01:07:21;;;;;;;13.40;9.40;;;20.50;89.00;;;;;;5075981;28;20452;-74
2021/07/27 01:09:48;;;;;;;12.43;10.53;;;20.50;89.00;;;;;;5075912;28;20445;-74
2021/07/27 01:12:15;;;;;;;11.13;9.23;;;20.50;88.80;;;;;;5075471;28;20970;-74
2021/07/27 01:14:41;;;;;;;18.23;9.43;;;20.50;88.60;;;;;;5075766;28;20487;-73
2021/07/27 01:17:08;;;;;;;11.50;10.23;;;20.50;88.60;;;;;;5075881;28;20444;-73
2021/07/27 01:19:45;;;;;;;10.70;9.60;;;20.60;88.70;;;;;;5075743;28;20440;-73
2021/07/27 01:44:18;;;;;;;13.00;10.30;;;20.80;86.90;;;;;;5069960;28;20494;-73
2021/07/27 01:46:51;;;;;;;14.43;10.63;;;20.80;86.50;;;;;;5075775;28;20440;-73
2021/07/27 01:49:17;;;;;;;14.20;10.33;;;20.80;86.40;;;;;;5075220;28;20424;-73
2021/07/27 01:51:45;;;;;;;12.37;10.77;;;20.80;86.40;;;;;;5074778;28;20981;-73
2021/07/27 01:54:15;;;;;;;12.30;10.83;;;20.90;86.70;;;;;;5074619;28;20444;-73
2021/07/27 01:56:44;;;;;;;13.03;11.63;;;20.80;86.60;;;;;;5075036;28;20452;-73
2021/07/27 01:59:10;;;;;;;14.23;12.00;;;20.90;86.80;;;;;;5075236;28;20445;-73
2021/07/27 02:01:40;;;;;;;15.10;12.33;;;20.90;86.90;;;;;;5074871;28;20468;-73
2021/07/27 02:04:06;;;;;;;14.80;13.20;;;20.90;86.90;;;;;;5074585;28;20989;-73
2021/07/27 02:06:33;;;;;;;17.30;13.53;;;20.90;86.90;;;;;;5075116;28;20440;-73
2021/07/27 02:09:05;;;;;;;13.37;12.00;;;20.90;86.70;;;;;;5074756;28;20535;-73
2021/07/27 02:11:39;;;;;;;17.20;12.23;;;20.90;86.60;;;;;;5074670;28;20433;-73
2021/07/27 02:14:05;;;;;;;21.33;14.17;;;21.00;86.80;;;;;;5074332;28;20898;-73
2021/07/27 02:16:36;;;;;;;16.63;13.60;;;20.90;86.70;;;;;;5074637;28;20539;-73
2021/07/27 02:19:03;;;;;;;20.10;14.40;;;20.90;86.70;;;;;;5074589;28;20819;-73
2021/07/27 02:21:30;;;;;;;19.47;16.03;;;20.90;86.40;;;;;;5074291;28;20575;-73
2021/07/27 02:23:57;;;;;;;20.33;17.13;;;20.90;86.60;;;;;;5074527;28;20440;-73
2021/07/27 02:26:23;;;;;;;16.77;14.87;;;20.80;86.60;;;;;;5074406;28;20441;-73
2021/07/27 02:28:52;;;;;;;18.37;15.47;;;20.80;86.60;;;;;;5074612;28;20445;-73
2021/07/27 02:31:25;;;;;;;16.47;13.87;;;20.80;86.70;;;;;;5074268;28;20445;-73
2021/07/27 02:33:51;;;;;;;18.43;16.20;;;20.80;86.60;;;;;;5074274;28;20484;-73
2021/07/27 02:36:18;;;;;;;19.07;13.43;;;20.80;86.40;;;;;;5073293;28;20484;-73
2021/07/27 02:38:45;;;;;;;17.70;14.30;;;20.90;86.40;;;;;;5074198;28;20440;-73
2021/07/27 02:41:12;;;;;;;19.40;15.63;;;20.90;86.10;;;;;;5073874;28;20858;-73
2021/07/27 02:43:39;;;;;;;18.70;16.10;;;20.90;86.10;;;;;;5074112;28;20441;-73
2021/07/27 02:46:07;;;;;;;19.70;15.83;;;20.90;86.00;;;;;;5073752;28;20923;-73
2021/07/27 02:48:34;;;;;;;19.47;16.10;;;20.80;86.00;;;;;;5074279;28;20448;-73
2021/07/27 02:51:02;;;;;;;18.07;16.13;;;20.80;85.80;;;;;;5073973;28;20452;-73
2021/07/27 02:53:30;;;;;;;22.07;18.63;;;20.80;85.90;;;;;;5073831;28;20538;-74
2021/07/27 02:55:59;;;;;;;23.93;16.93;;;20.80;85.80;;;;;;5073529;28;20480;-73
2021/07/27 02:58:37;;;;;;;19.70;17.67;;;20.80;85.80;;;;;;5073875;28;20455;-73
2021/07/27 03:01:05;;;;;;;18.70;16.90;;;20.80;85.70;;;;;;5073548;28;20429;-73
2021/07/27 03:03:33;;;;;;;20.80;18.57;;;20.80;85.60;;;;;;5073981;28;20469;-73
2021/07/27 03:06:01;;;;;;;20.67;17.73;;;20.80;85.70;;;;;;5073730;28;20441;-73
2021/07/27 03:08:46;;;;;;;26.03;19.80;;;20.80;85.90;;;;;;5073744;28;20444;-73
2021/07/27 03:11:13;;;;;;;27.57;20.70;;;20.70;86.20;;;;;;5073716;28;20468;-73
2021/07/27 03:13:40;;;;;;;27.17;20.17;;;20.60;86.60;;;;;;5073675;28;20472;-73
2021/07/27 03:16:07;;;;;;;21.63;16.77;;;20.50;87.00;;;;;;5073548;28;20480;-73
2021/07/27 03:18:35;;;;;;;21.67;19.37;;;20.50;87.30;;;;;;5073303;28;20440;-73
2021/07/27 03:21:02;;;;;;;22.40;20.10;;;20.40;87.50;;;;;;5073624;28;20436;-73
2021/07/27 03:23:29;;;;;;;29.10;20.43;;;20.40;87.50;;;;;;5073369;28;20800;-73
2021/07/27 03:25:56;;;;;;;22.77;20.10;;;20.40;87.50;;;;;;5073559;28;20444;-73
2021/07/27 03:28:22;;;;;;;21.43;17.10;;;20.40;87.50;;;;;;5073496;28;20445;-73
2021/07/27 03:30:49;;;;;;;24.33;18.97;;;20.40;87.60;;;;;;5073471;28;20468;-73
2021/07/27 03:33:16;;;;;;;25.20;18.70;;;20.30;87.60;;;;;;5073398;28;20465;-73
2021/07/27 03:35:44;;;;;;;20.50;17.17;;;20.30;88.40;;;;;;5073368;28;20476;-73
2021/07/27 03:38:11;;;;;;;22.80;18.43;;;20.30;87.50;;;;;;5073393;28;20452;-73
2021/07/27 03:40:39;;;;;;;19.17;16.73;;;20.30;87.30;;;;;;5073419;28;20497;-73
2021/07/27 03:43:05;;;;;;;19.27;16.67;;;20.30;87.10;;;;;;5073296;28;20472;-73
2021/07/27 03:45:32;;;;;;;19.27;14.60;;;20.40;87.20;;;;;;5073061;28;20444;-73
2021/07/27 03:47:59;;;;;;;18.90;16.90;;;20.40;87.10;;;;;;5076699;28;20820;-73
2021/07/27 03:50:26;;;;;;;21.20;16.27;;;20.30;87.00;;;;;;5077722;28;20440;-73
2021/07/27 03:52:54;;;;;;;20.50;17.40;;;20.30;86.80;;;;;;5077349;28;20464;-73
2021/07/27 03:55:20;;;;;;;17.37;15.57;;;20.30;86.80;;;;;;5077248;28;20476;-73
2021/07/27 03:57:47;;;;;;;20.77;16.40;;;20.30;87.00;;;;;;5077324;28;20450;-73
2021/07/27 04:00:15;;;;;;;18.60;16.60;;;20.30;87.10;;;;;;5076930;28;20797;-73
2021/07/27 04:02:41;;;;;;;18.70;16.53;;;20.40;87.10;;;;;;5077397;28;20460;-73
2021/07/27 04:05:08;;;;;;;19.97;16.27;;;20.30;87.20;;;;;;5077180;28;20448;-73
2021/07/27 04:07:35;;;;;;;18.83;16.80;;;20.30;87.30;;;;;;5077125;28;20444;-73
2021/07/27 04:10:04;;;;;;;20.70;14.93;;;20.30;87.30;;;;;;5077056;28;20468;-73
2021/07/27 04:12:30;;;;;;;20.70;16.10;;;20.30;87.20;;;;;;5077774;28;20464;-73
2021/07/27 04:14:57;;;;;;;20.27;17.00;;;20.30;87.30;;;;;;5076876;28;20820;-73
2021/07/27 04:17:24;;;;;;;19.40;14.50;;;20.30;88.10;;;;;;5076953;28;20447;-73
2021/07/27 04:19:51;;;;;;;14.13;12.70;;;20.40;87.30;;;;;;5076898;28;20535;-73
2021/07/27 04:22:17;;;;;;;16.90;15.20;;;20.30;87.00;;;;;;5076479;28;20483;-73
2021/07/27 04:24:44;;;;;;;15.70;14.10;;;20.40;87.00;;;;;;5076774;28;20852;-73
2021/07/27 04:27:12;;;;;;;16.20;12.13;;;20.40;86.70;;;;;;5076715;28;20445;-73
2021/07/27 04:29:39;;;;;;;19.93;14.80;;;20.50;86.60;;;;;;5076660;28;20506;-73
2021/07/27 04:32:07;;;;;;;17.10;15.17;;;20.50;86.20;;;;;;5076795;28;20463;-73
2021/07/27 04:34:33;;;;;;;17.80;14.40;;;20.60;86.10;;;;;;5076272;28;20930;-73
2021/07/27 04:37:00;;;;;;;14.67;13.10;;;20.60;86.00;;;;;;5076456;28;20503;-73
2021/07/27 04:39:29;;;;;;;15.03;13.50;;;20.60;85.60;;;;;;5076489;28;20444;-73
2021/07/27 04:41:56;;;;;;;17.50;14.97;;;20.70;85.40;;;;;;5076358;28;20579;-73
2021/07/27 04:44:24;;;;;;;16.10;13.90;;;20.70;85.20;;;;;;5076661;28;20437;-73
2021/07/27 04:46:50;;;;;;;17.13;13.03;;;20.60;85.30;;;;;;5076372;28;20829;-73
2021/07/27 04:49:17;;;;;;;21.97;14.53;;;20.70;85.40;;;;;;5076307;28;20468;-73
2021/07/27 04:51:45;;;;;;;17.23;13.53;;;20.70;85.50;;;;;;5076240;28;20461;-73
2021/07/27 04:54:15;;;;;;;15.17;13.63;;;20.60;85.50;;;;;;5076173;28;20448;-73
2021/07/27 04:56:43;;;;;;;14.93;13.33;;;20.60;85.60;;;;;;5076118;28;20464;-73
2021/07/27 04:59:09;;;;;;;17.20;15.40;;;20.60;85.60;;;;;;5075158;28;20449;-74
2021/07/27 05:01:40;;;;;;;12.80;11.60;;;20.70;85.70;;;;;;5076045;28;20467;-73
2021/07/27 05:04:07;;;;;;;15.87;13.50;;;20.60;85.50;;;;;;5076083;28;20452;-73
2021/07/27 05:06:34;;;;;;;13.63;12.17;;;20.60;85.80;;;;;;5075989;28;20441;-73
2021/07/27 05:09:02;;;;;;;16.40;13.10;;;20.60;85.80;;;;;;5075960;28;20445;-74
2021/07/27 05:11:28;;;;;;;14.63;13.00;;;20.70;86.20;;;;;;5075858;28;20471;-73
2021/07/27 05:13:56;;;;;;;11.17;9.80;;;20.70;86.20;;;;;;5075568;28;20953;-73
2021/07/27 05:16:23;;;;;;;15.47;12.60;;;20.70;85.80;;;;;;5075770;28;20477;-73
2021/07/27 05:18:52;;;;;;;14.10;11.57;;;20.70;86.00;;;;;;5075780;28;20448;-74
2021/07/27 05:21:18;;;;;;;14.53;10.70;;;20.70;85.80;;;;;;5075939;28;20475;-73
2021/07/27 05:23:45;;;;;;;14.90;12.40;;;20.70;85.80;;;;;;5075730;28;20435;-73
2021/07/27 05:26:12;;;;;;;15.23;12.07;;;20.70;86.10;;;;;;5075323;28;20926;-73
2021/07/27 05:28:38;;;;;;;13.67;12.20;;;20.60;86.20;;;;;;5075609;28;20463;-73
2021/07/27 05:31:06;;;;;;;11.90;10.80;;;20.60;86.30;;;;;;5075251;28;20854;-73
2021/07/27 05:33:33;;;;;;;11.60;10.40;;;20.60;86.30;;;;;;5075458;28;20518;-73
2021/07/27 05:36:01;;;;;;;12.90;11.70;;;20.50;86.10;;;;;;5075409;28;20564;-73
2021/07/27 05:38:28;;;;;;;16.67;10.30;;;20.40;86.40;;;;;;5075664;28;20444;-73
2021/07/27 05:40:55;;;;;;;11.83;10.63;;;20.40;86.00;;;;;;5075408;28;20444;-73
2021/07/27 05:43:22;;;;;;;11.60;9.57;;;20.40;85.80;;;;;;5075291;28;20472;-74
2021/07/27 05:45:49;;;;;;;10.87;9.77;;;20.40;86.40;;;;;;5074961;28;20955;-74
2021/07/27 05:48:15;;;;;;;13.20;9.33;;;20.40;86.20;;;;;;5074917;28;20819;-74
2021/07/27 05:50:42;;;;;;;12.30;9.27;;;20.40;85.80;;;;;;5075182;28;20445;-73
2021/07/27 05:53:10;;;;;;;11.13;9.47;;;20.40;85.90;;;;;;5075265;28;20460;-73
2021/07/27 05:55:37;;;;;;;10.33;8.83;;;20.40;86.10;;;;;;5074996;28;20480;-73
2021/07/27 05:58:03;;;;;;;10.80;9.33;;;20.40;86.10;;;;;;5074998;28;20954;-73
2021/07/27 06:00:30;;;;;;;11.13;8.90;;;20.40;86.20;;;;;;5074691;28;20926;-74
2021/07/27 06:02:57;;;;;;;14.50;8.77;;;20.40;85.80;;;;;;5074861;28;20487;-73
2021/07/27 06:05:23;;;;;;;12.40;9.17;;;20.40;85.50;;;;;;5075262;28;20436;-73
2021/07/27 06:07:50;;;;;;;10.00;8.93;;;20.50;85.30;;;;;;5074855;28;20448;-73
2021/07/27 06:10:18;;;;;;;13.03;9.13;;;20.60;84.80;;;;;;5074701;28;20447;-73
2021/07/27 06:12:45;;;;;;;11.00;9.10;;;20.70;84.60;;;;;;5074921;28;20465;-73
2021/07/27 06:15:12;;;;;;;11.10;10.00;;;20.80;84.10;;;;;;5074664;28;20452;-72
2021/07/27 06:17:39;;;;;;;11.60;8.63;;;20.80;83.80;;;;;;5074799;28;20476;-73
2021/07/27 06:20:07;;;;;;;14.20;9.27;;;20.90;83.40;;;;;;5074594;28;20441;-73
2021/07/27 06:22:34;;;;;;;18.77;9.87;;;20.90;82.30;;;;;;5074175;28;20480;-73
2021/07/27 06:25:02;;;;;;;9.63;8.53;;;21.10;82.70;;;;;;5074461;28;20440;-73
2021/07/27 06:27:30;;;;;;;9.43;7.53;;;21.20;81.90;;;;;;5074435;28;20519;-73
2021/07/27 06:29:57;;;;;;;8.23;7.43;;;21.20;81.20;;;;;;5074511;28;20452;-73
2021/07/27 06:32:24;;;;;;;8.03;7.23;;;21.30;80.60;;;;;;5074456;28;20464;-73
2021/07/27 06:34:51;;;;;;;10.10;7.60;;;21.20;80.40;;;;;;5074282;28;20447;-73
2021/07/27 06:37:17;;;;;;;9.03;7.97;;;21.20;80.90;;;;;;5074220;28;20472;-73
2021/07/27 06:39:44;;;;;;;8.60;7.80;;;21.20;80.90;;;;;;5074224;28;20474;-73
2021/07/27 06:42:11;;;;;;;8.20;7.40;;;21.20;81.30;;;;;;5074109;28;20464;-73
2021/07/27 06:44:38;;;;;;;9.70;8.70;;;21.20;80.80;;;;;;5073811;28;20448;-73
2021/07/27 06:47:05;;;;;;;9.23;8.23;;;21.30;80.50;;;;;;5073760;28;20444;-73
2021/07/27 06:49:32;;;;;;;8.00;7.30;;;21.30;80.40;;;;;;5074045;28;20467;-73
2021/07/27 06:51:59;;;;;;;10.57;8.30;;;21.40;80.40;;;;;;5074210;28;20464;-73
2021/07/27 06:54:25;;;;;;;9.53;7.33;;;21.40;80.20;;;;;;5073910;28;20491;-73
2021/07/27 06:56:55;;;;;;;8.57;7.77;;;21.40;79.70;;;;;;5073863;28;20476;-73
2021/07/27 06:59:23;;;;;;;8.50;7.17;;;21.50;80.20;;;;;;5073602;28;20444;-73
2021/07/27 07:01:51;;;;;;;8.43;7.57;;;21.60;80.10;;;;;;5073826;28;20518;-73
2021/07/27 07:04:18;;;;;;;9.43;8.47;;;21.60;79.80;;;;;;5074095;28;20436;-73
2021/07/27 07:06:44;;;;;;;8.40;7.63;;;21.70;79.30;;;;;;5073985;28;20441;-73
2021/07/27 07:09:11;;;;;;;9.20;7.70;;;21.70;78.80;;;;;;5073769;28;20440;-73
2021/07/27 07:11:38;;;;;;;8.67;7.70;;;21.80;78.50;;;;;;5073428;28;20844;-73
2021/07/27 07:14:04;;;;;;;9.70;8.30;;;21.80;78.20;;;;;;5073702;28;20440;-73
2021/07/27 07:16:31;;;;;;;8.70;7.90;;;21.90;78.40;;;;;;5073296;28;20986;-73
2021/07/27 07:18:59;;;;;;;12.43;8.30;;;22.00;78.20;;;;;;5073825;28;20815;-73
2021/07/27 07:21:26;;;;;;;8.57;7.77;;;22.10;77.70;;;;;;5073128;28;20449;-73
2021/07/27 07:23:52;;;;;;;8.80;7.90;;;22.20;77.50;;;;;;5073778;28;20482;-73
2021/07/27 07:26:19;;;;;;;12.60;8.17;;;22.20;77.50;;;;;;5073844;28;20907;-73
2021/07/27 07:28:46;;;;;;;8.80;8.00;;;22.30;77.00;;;;;;5074035;28;20451;-73
2021/07/27 07:31:16;;;;;;;11.00;7.53;;;22.40;76.20;;;;;;5073952;28;20441;-73
2021/07/27 07:33:43;;;;;;;9.10;7.80;;;22.50;76.30;;;;;;5073620;28;20444;-73
2021/07/27 07:36:12;;;;;;;9.23;8.43;;;22.60;76.60;;;;;;5073596;28;20489;-73
2021/07/27 07:38:39;;;;;;;11.87;9.20;;;22.50;75.90;;;;;;5073567;28;20444;-73
2021/07/27 07:41:07;;;;;;;8.73;8.07;;;22.50;76.30;;;;;;5074301;28;20802;-73
2021/07/27 07:43:34;;;;;;;8.63;7.73;;;22.40;76.50;;;;;;5073606;28;20491;-73
2021/07/27 07:46:01;;;;;;;12.43;8.20;;;22.40;76.70;;;;;;5073418;28;20444;-73
2021/07/27 07:48:28;;;;;;;14.10;8.60;;;22.50;76.30;;;;;;5075945;28;20449;-76
2021/07/27 07:50:55;;;;;;;9.67;8.20;;;22.60;75.90;;;;;;5074586;28;20463;-76
2021/07/27 07:53:23;;;;;;;8.20;6.70;;;22.70;75.20;;;;;;5075155;28;20469;-76
2021/07/27 07:55:49;;;;;;;8.30;7.47;;;22.80;74.90;;;;;;5075152;28;20441;-76
2021/07/27 07:58:16;;;;;;;10.33;7.00;;;22.90;74.40;;;;;;5075518;28;20484;-76
2021/07/27 08:00:43;;;;;;;11.27;8.27;;;23.00;73.80;;;;;;5074556;28;20849;-76
2021/07/27 08:03:10;;;;;;;9.23;7.97;;;23.30;73.70;;;;;;5075803;28;20472;-76
2021/07/27 08:05:37;;;;;;;9.67;8.10;;;23.60;72.40;;;;;;5075522;28;20449;-76
2021/07/27 08:08:04;;;;;;;8.27;7.57;;;23.80;71.20;;;;;;5075874;28;20441;-76
2021/07/27 08:10:33;;;;;;;9.40;6.60;;;23.90;70.70;;;;;;5075340;28;20441;-76
2021/07/27 08:12:59;;;;;;;9.60;6.03;;;24.10;70.10;;;;;;5074906;28;20487;-76
2021/07/27 08:15:27;;;;;;;7.13;6.50;;;24.30;69.20;;;;;;5074821;28;20448;-76
2021/07/27 08:17:54;;;;;;;11.40;9.60;;;24.60;68.50;;;;;;5074932;28;20575;-76
2021/07/27 08:20:21;;;;;;;9.27;8.20;;;24.90;65.80;;;;;;5074511;28;20444;-76
2021/07/27 08:22:48;;;;;;;9.63;8.00;;;25.10;66.40;;;;;;5073636;28;20488;-76
2021/07/27 08:25:16;;;;;;;9.47;8.43;;;25.20;64.60;;;;;;5073926;28;20451;-76
2021/07/27 08:27:46;;;;;;;9.47;8.57;;;25.30;63.60;;;;;;5073984;28;20444;-76
2021/07/27 08:30:14;;;;;;;9.47;7.93;;;25.40;64.10;;;;;;5074262;28;20443;-76
2021/07/27 08:32:44;;;;;;;12.20;7.43;;;25.40;63.60;;;;;;5074610;28;20475;-76
2021/07/27 08:35:12;;;;;;;10.60;7.07;;;25.60;64.00;;;;;;5078293;28;20431;-75
2021/07/27 08:37:38;;;;;;;11.50;8.63;;;25.80;64.80;;;;;;5078157;28;20480;-75
2021/07/27 08:40:07;;;;;;;8.80;7.90;;;26.00;63.10;;;;;;5077930;28;20480;-77
2021/07/27 08:42:34;;;;;;;10.87;9.00;;;26.20;61.30;;;;;;5082904;28;20473;-76
2021/07/27 08:45:04;;;;;;;10.20;9.20;;;26.40;60.30;;;;;;5077754;28;20484;-75
2021/07/27 08:47:32;;;;;;;8.60;7.70;;;26.60;59.10;;;;;;5077426;28;20464;-75
2021/07/27 08:50:00;;;;;;;8.27;7.40;;;26.70;58.60;;;;;;5077364;28;20455;-76
2021/07/27 08:52:27;;;;;;;8.87;8.13;;;26.80;59.10;;;;;;5077887;28;20472;-77
2021/07/27 08:54:54;;;;;;;9.70;8.70;;;26.90;57.90;;;;;;5078901;28;20518;-76
2021/07/27 08:57:21;;;;;;;8.63;7.83;;;27.00;58.10;;;;;;5078333;28;20484;-75
2021/07/27 08:59:48;;;;;;;7.53;6.93;;;27.10;58.10;;;;;;5077305;28;20977;-75
2021/07/27 09:02:26;;;;;;;8.80;8.00;;;27.40;57.20;;;;;;5078065;28;20489;-77
2021/07/27 09:05:03;;;;;;;8.73;7.60;;;27.80;56.40;;;;;;5077473;28;20436;-75
2021/07/27 09:07:30;;;;;;;9.30;8.40;;;28.20;56.00;;;;;;5078415;28;20433;-77
2021/07/27 09:09:57;;;;;;;9.93;7.53;;;28.60;54.40;;;;;;5078258;28;20448;-76
2021/07/27 09:12:23;;;;;;;19.73;8.20;;;29.00;53.20;;;;;;5078932;28;20535;-77
2021/07/27 09:14:50;;;;;;;13.80;8.17;;;29.30;51.50;;;;;;5078724;28;20451;-77
2021/07/27 09:17:25;;;;;;;8.90;8.20;;;29.60;50.40;;;;;;5078432;28;20483;-77
2021/07/27 09:19:53;;;;;;;8.90;7.53;;;29.90;49.30;;;;;;5079082;28;20436;-77
2021/07/27 09:22:20;;;;;;;9.20;7.80;;;29.90;48.30;;;;;;5080313;28;20479;-77
2021/07/27 09:24:46;;;;;;;8.10;7.37;;;29.80;47.80;;;;;;5079205;28;20445;-77
2021/07/27 09:27:13;;;;;;;11.80;7.93;;;29.80;48.20;;;;;;5078762;28;20483;-77
2021/07/27 09:29:45;;;;;;;12.17;7.13;;;30.00;48.50;;;;;;5080653;28;20449;-77
2021/07/27 09:32:18;;;;;;;9.10;7.80;;;29.90;47.90;;;;;;5080692;28;20470;-77
2021/07/27 09:34:45;;;;;;;9.27;8.07;;;30.00;47.90;;;;;;5080331;28;20437;-77
2021/07/27 09:37:12;;;;;;;8.90;8.00;;;30.00;47.70;;;;;;5079395;28;21005;-77
2021/07/27 09:39:39;;;;;;;10.90;9.27;;;29.80;47.50;;;;;;5079702;28;20449;-77
2021/07/27 09:42:08;;;;;;;8.37;7.57;;;29.50;47.80;;;;;;5078107;28;20487;-77
2021/07/27 09:44:36;;;;;;;9.30;7.87;;;29.40;47.40;;;;;;5076789;28;20829;-77
2021/07/27 09:47:04;;;;;;;8.87;8.00;;;29.30;48.20;;;;;;5078516;28;20455;-77
2021/07/27 09:49:32;;;;;;;9.03;8.33;;;29.20;48.30;;;;;;5079785;28;20445;-77
2021/07/27 09:51:59;;;;;;;7.93;7.30;;;29.20;49.10;;;;;;5079939;28;20468;-77
2021/07/27 09:54:27;;;;;;;8.00;7.40;;;29.30;48.40;;;;;;5082153;28;20849;-77
2021/07/27 09:56:55;;;;;;;8.40;7.20;;;29.40;47.60;;;;;;5082587;28;20484;-76
2021/07/27 09:59:23;;;;;;;9.53;8.27;;;29.40;46.60;;;;;;5082876;28;20459;-77
2021/07/27 10:01:54;;;;;;;8.40;7.57;;;29.40;47.40;;;;;;5082699;28;20469;-77
2021/07/27 10:04:24;;;;;;;12.10;7.70;;;29.40;47.00;;;;;;5080893;28;20429;-77
2021/07/27 10:06:52;;;;;;;11.50;8.63;;;29.20;46.80;;;;;;5080352;28;20437;-76
2021/07/27 10:09:27;;;;;;;8.50;7.30;;;28.80;47.80;;;;;;5080751;28;20445;-77
2021/07/27 10:12:05;;;;;;;11.93;8.60;;;28.50;47.90;;;;;;5079884;28;20485;-77
2021/07/27 10:14:40;;;;;;;8.10;7.37;;;28.40;49.80;;;;;;5079394;28;20919;-76
2021/07/27 10:17:06;;;;;;;13.00;8.53;;;28.50;48.80;;;;;;5080693;28;20474;-77
2021/07/27 10:19:40;;;;;;;10.93;7.63;;;28.90;50.10;;;;;;5079828;28;20449;-77
2021/07/27 10:22:09;;;;;;;10.57;7.50;;;29.30;47.40;;;;;;5080603;28;20521;-77
2021/07/27 10:24:40;;;;;;;9.23;7.30;;;29.40;47.70;;;;;;5079050;28;20449;-76
2021/07/27 10:27:08;;;;;;;11.37;7.60;;;29.30;46.50;;;;;;5079026;28;20433;-77
2021/07/27 10:29:35;;;;;;;12.83;7.27;;;28.90;47.10;;;;;;5082540;28;20459;-77
2021/07/27 10:32:13;;;;;;;9.70;7.60;;;28.80;48.00;;;;;;5082563;28;20476;-77
2021/07/27 10:34:41;;;;;;;10.37;7.33;;;28.80;47.30;;;;;;5081504;28;20476;-77
2021/07/27 10:37:10;;;;;;;9.43;8.47;;;28.90;48.20;;;;;;5081236;28;20522;-76
2021/07/27 10:39:48;;;;;;;7.83;7.13;;;29.00;46.80;;;;;;5081231;28;20448;-77
2021/07/27 10:42:14;;;;;;;9.13;7.93;;;28.90;47.70;;;;;;5079648;28;20454;-76
2021/07/27 10:44:41;;;;;;;8.60;7.83;;;28.80;47.20;;;;;;5078608;28;20455;-77
2021/07/27 10:47:08;;;;;;;10.30;7.87;;;28.70;47.90;;;;;;5079307;28;20468;-76
2021/07/27 10:49:35;;;;;;;9.93;7.93;;;28.40;48.80;;;;;;5080348;28;20445;-77
2021/07/27 10:52:03;;;;;;;11.40;8.30;;;28.20;49.00;;;;;;5080804;28;20477;-77
2021/07/27 10:54:33;;;;;;;10.17;7.47;;;27.90;49.80;;;;;;5082398;28;20449;-77
2021/07/27 10:57:02;;;;;;;9.37;8.07;;;28.00;51.30;;;;;;5078992;28;20449;-76
2021/07/27 10:59:31;;;;;;;8.37;7.63;;;28.30;51.90;;;;;;5081789;28;20449;-77
2021/07/27 11:01:58;;;;;;;7.60;6.80;;;28.70;50.40;;;;;;5078474;28;20485;-76
2021/07/27 11:04:29;;;;;;;8.47;7.77;;;29.20;49.50;;;;;;5078302;28;20453;-76
2021/07/27 11:07:10;;;;;;;8.00;7.10;;;29.60;46.80;;;;;;5078411;28;20445;-77
2021/07/27 11:09:48;;;;;;;8.60;7.20;;;29.90;46.50;;;;;;5077494;28;20429;-77
2021/07/27 11:12:25;;;;;;;7.77;7.07;;;30.00;46.30;;;;;;5077734;28;20488;-76
2021/07/27 11:14:51;;;;;;;8.07;6.87;;;30.20;45.60;;;;;;5077983;28;20464;-76
2021/07/27 11:17:23;;;;;;;8.30;7.60;;;30.40;45.00;;;;;;5077967;28;21003;-77
2021/07/27 11:19:53;;;;;;;7.70;7.00;;;30.50;43.20;;;;;;5078483;28;20437;-77
2021/07/27 11:22:20;;;;;;;8.50;7.77;;;30.60;43.10;;;;;;5078214;28;20472;-76
2021/07/27 11:24:48;;;;;;;8.63;7.93;;;30.60;43.00;;;;;;5077720;28;20457;-77
2021/07/27 11:27:15;;;;;;;8.73;7.93;;;31.20;42.60;;;;;;5078775;28;20445;-77
2021/07/27 11:29:42;;;;;;;14.43;8.20;;;31.60;42.50;;;;;;5079044;28;20456;-77
2021/07/27 11:32:13;;;;;;;9.27;8.37;;;32.40;41.90;;;;;;5079131;28;20836;-76
2021/07/27 11:34:40;;;;;;;10.00;8.43;;;32.90;39.80;;;;;;5079244;28;20417;-77
2021/07/27 11:37:06;;;;;;;8.50;7.80;;;33.20;38.30;;;;;;5080140;28;20957;-77
2021/07/27 11:39:40;;;;;;;7.50;6.90;;;33.20;39.30;;;;;;5080283;28;20794;-77
2021/07/27 11:42:08;;;;;;;8.97;8.13;;;33.40;40.20;;;;;;5079292;28;20842;-77
2021/07/27 11:44:35;;;;;;;12.57;8.43;;;33.40;38.30;;;;;;5080053;28;20448;-77
2021/07/27 11:47:02;;;;;;;8.73;8.00;;;33.60;39.30;;;;;;5080163;28;20949;-76
2021/07/27 11:49:33;;;;;;;9.77;8.50;;;33.90;38.60;;;;;;5079416;28;20444;-77
2021/07/27 11:52:02;;;;;;;9.63;8.80;;;34.00;37.20;;;;;;5079678;28;20476;-77
2021/07/27 11:54:29;;;;;;;9.10;8.40;;;33.90;37.80;;;;;;5079348;28;20470;-77
2021/07/27 11:56:56;;;;;;;8.23;7.50;;;33.70;38.40;;;;;;5079060;28;20447;-76
2021/07/27 11:59:29;;;;;;;8.63;7.83;;;33.90;37.50;;;;;;5078504;28;20848;-76
2021/07/27 12:01:56;;;;;;;8.50;7.80;;;33.90;36.80;;;;;;5080906;28;20470;-77
2021/07/27 12:04:23;;;;;;;8.60;7.87;;;34.00;37.30;;;;;;5078196;28;20459;-77
2021/07/27 12:06:51;;;;;;;6.90;6.23;;;34.40;37.50;;;;;;5078053;28;20458;-75
2021/07/27 12:09:21;;;;;;;7.37;6.13;;;35.10;33.70;;;;;;5080674;28;20938;-75
2021/07/27 12:11:49;;;;;;;7.30;6.70;;;35.90;32.50;;;;;;5079341;28;20518;-76
2021/07/27 12:14:15;;;;;;;9.23;6.80;;;36.90;31.80;;;;;;5079953;28;20937;-76
2021/07/27 12:16:43;;;;;;;10.63;6.10;;;37.70;28.50;;;;;;5079352;28;20934;-76
2021/07/27 12:19:10;;;;;;;6.57;5.93;;;38.50;30.00;;;;;;5079671;28;20218;-76
2021/07/27 12:21:38;;;;;;;11.05;6.53;;;39.10;28.20;;;;;;5081158;28;20218;-78
2021/07/27 12:24:06;;;;;;;7.53;6.07;;;39.50;26.10;;;;;;5080687;28;20190;-77
2021/07/27 12:26:35;;;;;;;7.95;6.38;;;39.90;26.20;;;;;;5080012;28;20320;-76
2021/07/27 12:29:02;;;;;;;6.55;6.05;;;40.00;25.10;;;;;;5081519;28;20194;-76
2021/07/27 12:31:29;;;;;;;7.07;5.38;;;40.10;26.10;;;;;;5078402;28;20210;-76
2021/07/27 12:33:57;;;;;;;6.78;6.15;;;40.40;26.70;;;;;;5083326;28;20197;-76
2021/07/27 12:36:23;;;;;;;8.13;6.55;;;40.10;25.10;;;;;;5083491;28;20552;-76
2021/07/27 12:38:50;;;;;;;7.57;6.40;;;39.30;26.50;;;;;;5082560;28;20218;-78
2021/07/27 12:41:17;;;;;;;7.83;7.33;;;38.40;27.70;;;;;;5081795;28;20566;-78
2021/07/27 12:43:43;;;;;;;7.47;6.87;;;37.90;27.60;;;;;;5082527;28;20655;-78
2021/07/27 12:46:10;;;;;;;7.97;7.37;;;37.30;28.50;;;;;;5084315;28;20574;-76
2021/07/27 12:48:37;;;;;;;8.90;7.40;;;36.60;29.90;;;;;;5082288;28;20444;-76
2021/07/27 12:51:05;;;;;;;8.33;7.63;;;35.80;30.00;;;;;;5083346;28;20212;-76
2021/07/27 12:53:32;;;;;;;6.87;6.37;;;35.60;32.00;;;;;;5085187;28;20546;-78
2021/07/27 12:55:59;;;;;;;8.17;7.47;;;35.20;31.50;;;;;;5083741;28;20448;-77
2021/07/27 12:58:26;;;;;;;6.80;6.20;;;34.80;32.40;;;;;;5084719;28;20503;-77
2021/07/27 13:00:52;;;;;;;10.30;7.77;;;34.50;33.80;;;;;;5084159;28;20448;-78
2021/07/27 13:03:19;;;;;;;8.27;7.30;;;34.60;33.10;;;;;;5085933;28;20460;-77